sensor_id;sensor_type;location;lat;lon;timestamp;temperature;humidity
51637;DHT22;37713;53.254;6.460;2024-01-27T00:01:34;3.20;99.90
51637;DHT22;37713;53.254;6.460;2024-01-27T00:04:00;3.20;99.90
51637;DHT22;37713;53.254;6.460;2024-01-27T00:06:26;3.10;99.90
51637;DHT22;37713;53.254;6.460;2024-01-27T00:08:52;3.10;99.90
51637;DHT22;37713;53.254;6.460;2024-01-27T00:11:17;3.10;99.90
51637;DHT22;37713;53.254;6.460;2024-01-27T00:13:44;3.00;99.90
51637;DHT22;37713;53.254;6.460;2024-01-27T00:16:10;3.00;99.90
51637;DHT22;37713;53.254;6.460;2024-01-27T00:18:36;3.00;99.90
51637;DHT22;37713;53.254;6.460;2024-01-27T00:21:04;2.90;99.90
51637;DHT22;37713;53.254;6.460;2024-01-27T00:23:30;2.90;99.90
51637;DHT22;37713;53.254;6.460;2024-01-27T00:25:55;2.90;99.90
51637;DHT22;37713;53.254;6.460;2024-01-27T00:28:21;2.90;99.90
51637;DHT22;37713;53.254;6.460;2024-01-27T00:30:47;2.80;99.90
51637;DHT22;37713;53.254;6.460;2024-01-27T00:33:13;2.80;99.90
51637;DHT22;37713;53.254;6.460;2024-01-27T00:35:39;2.80;99.90
51637;DHT22;37713;53.254;6.460;2024-01-27T00:38:04;2.80;99.90
51637;DHT22;37713;53.254;6.460;2024-01-27T00:40:30;2.70;99.90
51637;DHT22;37713;53.254;6.460;2024-01-27T00:42:56;2.70;99.90
51637;DHT22;37713;53.254;6.460;2024-01-27T00:45:22;2.70;99.90
51637;DHT22;37713;53.254;6.460;2024-01-27T00:47:50;2.80;99.90
51637;DHT22;37713;53.254;6.460;2024-01-27T00:50:16;2.70;99.90
51637;DHT22;37713;53.254;6.460;2024-01-27T00:52:41;2.70;99.90
51637;DHT22;37713;53.254;6.460;2024-01-27T00:55:07;2.70;99.90
51637;DHT22;37713;53.254;6.460;2024-01-27T00:57:35;2.60;99.90
51637;DHT22;37713;53.254;6.460;2024-01-27T01:00:01;2.60;99.90
51637;DHT22;37713;53.254;6.460;2024-01-27T01:02:27;2.60;99.90
51637;DHT22;37713;53.254;6.460;2024-01-27T01:04:54;2.70;99.90
51637;DHT22;37713;53.254;6.460;2024-01-27T01:07:20;2.50;99.90
51637;DHT22;37713;53.254;6.460;2024-01-27T01:09:46;2.50;99.90
51637;DHT22;37713;53.254;6.460;2024-01-27T01:12:11;2.50;99.90
51637;DHT22;37713;53.254;6.460;2024-01-27T01:14:37;2.50;99.90
51637;DHT22;37713;53.254;6.460;2024-01-27T01:17:03;2.50;99.90
51637;DHT22;37713;53.254;6.460;2024-01-27T01:19:30;2.40;99.90
51637;DHT22;37713;53.254;6.460;2024-01-27T01:21:56;2.40;99.90
51637;DHT22;37713;53.254;6.460;2024-01-27T01:24:21;2.40;99.90
51637;DHT22;37713;53.254;6.460;2024-01-27T01:26:47;2.40;99.90
51637;DHT22;37713;53.254;6.460;2024-01-27T01:29:13;2.40;99.90
51637;DHT22;37713;53.254;6.460;2024-01-27T01:31:42;2.50;99.90
51637;DHT22;37713;53.254;6.460;2024-01-27T01:34:08;2.40;99.90
51637;DHT22;37713;53.254;6.460;2024-01-27T01:36:34;2.40;99.90
51637;DHT22;37713;53.254;6.460;2024-01-27T01:38:59;2.40;99.90
51637;DHT22;37713;53.254;6.460;2024-01-27T01:41:25;2.40;99.90
51637;DHT22;37713;53.254;6.460;2024-01-27T01:43:51;2.30;99.90
51637;DHT22;37713;53.254;6.460;2024-01-27T01:46:17;2.50;99.90
51637;DHT22;37713;53.254;6.460;2024-01-27T01:48:44;2.40;99.90
51637;DHT22;37713;53.254;6.460;2024-01-27T01:51:11;2.30;99.90
51637;DHT22;37713;53.254;6.460;2024-01-27T01:53:37;2.30;99.90
51637;DHT22;37713;53.254;6.460;2024-01-27T01:56:04;2.30;99.90
51637;DHT22;37713;53.254;6.460;2024-01-27T01:58:30;2.30;99.90
51637;DHT22;37713;53.254;6.460;2024-01-27T02:01:00;2.40;99.90
51637;DHT22;37713;53.254;6.460;2024-01-27T02:03:26;2.40;99.90
51637;DHT22;37713;53.254;6.460;2024-01-27T02:08:36;2.20;99.90
51637;DHT22;37713;53.254;6.460;2024-01-27T02:11:02;2.30;99.90
51637;DHT22;37713;53.254;6.460;2024-01-27T02:13:28;2.20;99.90
51637;DHT22;37713;53.254;6.460;2024-01-27T02:15:54;2.20;99.90
51637;DHT22;37713;53.254;6.460;2024-01-27T02:18:20;2.30;99.90
51637;DHT22;37713;53.254;6.460;2024-01-27T02:20:46;2.30;99.90
51637;DHT22;37713;53.254;6.460;2024-01-27T02:23:12;2.30;99.90
51637;DHT22;37713;53.254;6.460;2024-01-27T02:25:37;2.40;99.90
51637;DHT22;37713;53.254;6.460;2024-01-27T02:28:03;2.40;99.90
51637;DHT22;37713;53.254;6.460;2024-01-27T02:30:29;2.40;99.90
51637;DHT22;37713;53.254;6.460;2024-01-27T02:32:57;2.30;99.90
51637;DHT22;37713;53.254;6.460;2024-01-27T02:35:24;2.40;99.90
51637;DHT22;37713;53.254;6.460;2024-01-27T02:37:50;2.30;99.90
51637;DHT22;37713;53.254;6.460;2024-01-27T02:40:16;2.30;99.90
51637;DHT22;37713;53.254;6.460;2024-01-27T02:42:42;2.30;99.90
51637;DHT22;37713;53.254;6.460;2024-01-27T02:45:09;2.20;99.90
51637;DHT22;37713;53.254;6.460;2024-01-27T02:47:35;2.20;99.90
51637;DHT22;37713;53.254;6.460;2024-01-27T02:50:00;2.20;99.90
51637;DHT22;37713;53.254;6.460;2024-01-27T02:52:26;2.20;99.90
51637;DHT22;37713;53.254;6.460;2024-01-27T02:54:53;2.20;99.90
51637;DHT22;37713;53.254;6.460;2024-01-27T02:57:19;2.10;99.90
51637;DHT22;37713;53.254;6.460;2024-01-27T02:59:48;2.10;99.90
51637;DHT22;37713;53.254;6.460;2024-01-27T03:02:15;2.10;99.90
51637;DHT22;37713;53.254;6.460;2024-01-27T03:04:41;2.10;99.90
51637;DHT22;37713;53.254;6.460;2024-01-27T03:07:07;2.10;99.90
51637;DHT22;37713;53.254;6.460;2024-01-27T03:09:33;2.10;99.90
51637;DHT22;37713;53.254;6.460;2024-01-27T03:11:58;2.20;99.90
51637;DHT22;37713;53.254;6.460;2024-01-27T03:14:25;2.20;99.90
51637;DHT22;37713;53.254;6.460;2024-01-27T03:16:50;2.20;99.90
51637;DHT22;37713;53.254;6.460;2024-01-27T03:19:16;2.20;99.90
51637;DHT22;37713;53.254;6.460;2024-01-27T03:21:42;2.20;99.90
51637;DHT22;37713;53.254;6.460;2024-01-27T03:24:08;2.20;99.90
51637;DHT22;37713;53.254;6.460;2024-01-27T03:26:33;2.20;99.90
51637;DHT22;37713;53.254;6.460;2024-01-27T03:28:59;2.20;99.90
51637;DHT22;37713;53.254;6.460;2024-01-27T03:31:32;2.20;99.90
51637;DHT22;37713;53.254;6.460;2024-01-27T03:33:59;2.20;99.90
51637;DHT22;37713;53.254;6.460;2024-01-27T03:36:25;2.30;99.90
51637;DHT22;37713;53.254;6.460;2024-01-27T03:38:51;2.30;99.90
51637;DHT22;37713;53.254;6.460;2024-01-27T03:41:16;2.40;99.90
51637;DHT22;37713;53.254;6.460;2024-01-27T03:43:42;2.40;99.90
51637;DHT22;37713;53.254;6.460;2024-01-27T03:46:08;2.30;99.90
51637;DHT22;37713;53.254;6.460;2024-01-27T03:48:33;2.40;99.90
51637;DHT22;37713;53.254;6.460;2024-01-27T03:51:02;2.50;99.90
51637;DHT22;37713;53.254;6.460;2024-01-27T03:53:28;2.50;99.90
51637;DHT22;37713;53.254;6.460;2024-01-27T03:55:54;2.30;99.90
51637;DHT22;37713;53.254;6.460;2024-01-27T03:58:20;2.30;99.90
51637;DHT22;37713;53.254;6.460;2024-01-27T04:00:46;2.30;99.90
51637;DHT22;37713;53.254;6.460;2024-01-27T04:03:11;2.20;99.90
51637;DHT22;37713;53.254;6.460;2024-01-27T04:05:37;2.10;99.90
51637;DHT22;37713;53.254;6.460;2024-01-27T04:08:05;2.10;99.90
51637;DHT22;37713;53.254;6.460;2024-01-27T04:10:31;2.10;99.90
51637;DHT22;37713;53.254;6.460;2024-01-27T04:12:57;2.00;99.90
51637;DHT22;37713;53.254;6.460;2024-01-27T04:15:23;2.00;99.90
51637;DHT22;37713;53.254;6.460;2024-01-27T04:17:49;2.00;99.90
51637;DHT22;37713;53.254;6.460;2024-01-27T04:20:14;2.00;99.90
51637;DHT22;37713;53.254;6.460;2024-01-27T04:22:40;2.00;99.90
51637;DHT22;37713;53.254;6.460;2024-01-27T04:25:06;1.90;99.90
51637;DHT22;37713;53.254;6.460;2024-01-27T04:27:37;1.90;99.90
51637;DHT22;37713;53.254;6.460;2024-01-27T04:30:05;2.00;99.90
51637;DHT22;37713;53.254;6.460;2024-01-27T04:32:31;1.90;99.90
51637;DHT22;37713;53.254;6.460;2024-01-27T04:34:56;1.90;99.90
51637;DHT22;37713;53.254;6.460;2024-01-27T04:37:22;1.90;99.90
51637;DHT22;37713;53.254;6.460;2024-01-27T04:39:48;1.90;99.90
51637;DHT22;37713;53.254;6.460;2024-01-27T04:42:13;1.90;99.90
51637;DHT22;37713;53.254;6.460;2024-01-27T04:44:42;1.90;99.90
51637;DHT22;37713;53.254;6.460;2024-01-27T04:47:08;1.90;99.90
51637;DHT22;37713;53.254;6.460;2024-01-27T04:49:34;1.90;99.90
51637;DHT22;37713;53.254;6.460;2024-01-27T04:52:00;1.90;99.90
51637;DHT22;37713;53.254;6.460;2024-01-27T04:54:25;1.90;99.90
51637;DHT22;37713;53.254;6.460;2024-01-27T04:56:51;1.90;99.90
51637;DHT22;37713;53.254;6.460;2024-01-27T04:59:17;1.80;99.90
51637;DHT22;37713;53.254;6.460;2024-01-27T05:01:46;1.80;99.90
51637;DHT22;37713;53.254;6.460;2024-01-27T05:04:12;1.80;99.90
51637;DHT22;37713;53.254;6.460;2024-01-27T05:06:38;1.80;99.90
51637;DHT22;37713;53.254;6.460;2024-01-27T05:09:08;1.80;99.90
51637;DHT22;37713;53.254;6.460;2024-01-27T05:11:34;1.80;99.90
51637;DHT22;37713;53.254;6.460;2024-01-27T05:14:00;1.80;99.90
51637;DHT22;37713;53.254;6.460;2024-01-27T05:16:27;1.80;99.90
51637;DHT22;37713;53.254;6.460;2024-01-27T05:18:53;1.80;99.90
51637;DHT22;37713;53.254;6.460;2024-01-27T05:21:19;1.80;99.90
51637;DHT22;37713;53.254;6.460;2024-01-27T05:23:45;1.80;99.90
51637;DHT22;37713;53.254;6.460;2024-01-27T05:26:11;1.80;99.90
51637;DHT22;37713;53.254;6.460;2024-01-27T05:28:37;1.90;99.90
51637;DHT22;37713;53.254;6.460;2024-01-27T05:31:07;1.80;99.90
51637;DHT22;37713;53.254;6.460;2024-01-27T05:33:34;1.80;99.90
51637;DHT22;37713;53.254;6.460;2024-01-27T05:36:00;1.90;99.90
51637;DHT22;37713;53.254;6.460;2024-01-27T05:38:26;1.80;99.90
51637;DHT22;37713;53.254;6.460;2024-01-27T05:40:51;2.00;99.90
51637;DHT22;37713;53.254;6.460;2024-01-27T05:43:18;1.70;99.90
51637;DHT22;37713;53.254;6.460;2024-01-27T05:45:43;1.70;99.90
51637;DHT22;37713;53.254;6.460;2024-01-27T05:48:10;1.70;99.90
51637;DHT22;37713;53.254;6.460;2024-01-27T05:50:36;1.70;99.90
51637;DHT22;37713;53.254;6.460;2024-01-27T05:53:02;1.70;99.90
51637;DHT22;37713;53.254;6.460;2024-01-27T05:55:28;1.70;99.90
51637;DHT22;37713;53.254;6.460;2024-01-27T05:57:54;1.70;99.90
51637;DHT22;37713;53.254;6.460;2024-01-27T06:00:22;1.60;99.90
51637;DHT22;37713;53.254;6.460;2024-01-27T06:02:48;1.60;99.90
51637;DHT22;37713;53.254;6.460;2024-01-27T06:05:14;1.60;99.90
51637;DHT22;37713;53.254;6.460;2024-01-27T06:07:41;1.60;99.90
51637;DHT22;37713;53.254;6.460;2024-01-27T06:10:09;1.60;99.90
51637;DHT22;37713;53.254;6.460;2024-01-27T06:12:35;1.50;99.90
51637;DHT22;37713;53.254;6.460;2024-01-27T06:15:01;1.60;99.90
51637;DHT22;37713;53.254;6.460;2024-01-27T06:17:28;1.50;99.90
51637;DHT22;37713;53.254;6.460;2024-01-27T06:19:54;1.50;99.90
51637;DHT22;37713;53.254;6.460;2024-01-27T06:22:20;1.50;99.90
51637;DHT22;37713;53.254;6.460;2024-01-27T06:24:45;1.50;99.90
51637;DHT22;37713;53.254;6.460;2024-01-27T06:27:11;1.50;99.90
51637;DHT22;37713;53.254;6.460;2024-01-27T06:29:37;1.50;99.90
51637;DHT22;37713;53.254;6.460;2024-01-27T06:32:04;1.70;99.90
51637;DHT22;37713;53.254;6.460;2024-01-27T06:34:31;1.50;99.90
51637;DHT22;37713;53.254;6.460;2024-01-27T06:36:57;1.50;99.90
51637;DHT22;37713;53.254;6.460;2024-01-27T06:39:22;1.40;99.90
51637;DHT22;37713;53.254;6.460;2024-01-27T06:41:48;1.50;99.90
51637;DHT22;37713;53.254;6.460;2024-01-27T06:44:14;1.50;99.90
51637;DHT22;37713;53.254;6.460;2024-01-27T06:46:40;1.50;99.90
51637;DHT22;37713;53.254;6.460;2024-01-27T06:49:06;1.40;99.90
51637;DHT22;37713;53.254;6.460;2024-01-27T06:51:32;1.50;99.90
51637;DHT22;37713;53.254;6.460;2024-01-27T06:53:57;1.50;99.90
51637;DHT22;37713;53.254;6.460;2024-01-27T06:56:23;1.50;99.90
51637;DHT22;37713;53.254;6.460;2024-01-27T06:58:49;1.60;99.90
51637;DHT22;37713;53.254;6.460;2024-01-27T07:01:15;1.40;99.90
51637;DHT22;37713;53.254;6.460;2024-01-27T07:03:41;1.40;99.90
51637;DHT22;37713;53.254;6.460;2024-01-27T07:06:07;1.40;99.90
51637;DHT22;37713;53.254;6.460;2024-01-27T07:08:33;1.40;99.90
51637;DHT22;37713;53.254;6.460;2024-01-27T07:10:59;1.40;99.90
51637;DHT22;37713;53.254;6.460;2024-01-27T07:13:25;1.40;99.90
51637;DHT22;37713;53.254;6.460;2024-01-27T07:15:52;1.40;99.90
51637;DHT22;37713;53.254;6.460;2024-01-27T07:18:18;1.40;99.90
51637;DHT22;37713;53.254;6.460;2024-01-27T07:20:45;1.40;99.90
51637;DHT22;37713;53.254;6.460;2024-01-27T07:23:11;1.40;99.90
51637;DHT22;37713;53.254;6.460;2024-01-27T07:25:36;1.50;99.90
51637;DHT22;37713;53.254;6.460;2024-01-27T07:28:02;1.50;99.90
51637;DHT22;37713;53.254;6.460;2024-01-27T07:30:28;1.50;99.90
51637;DHT22;37713;53.254;6.460;2024-01-27T07:32:55;1.50;99.90
51637;DHT22;37713;53.254;6.460;2024-01-27T07:35:21;1.50;99.90
51637;DHT22;37713;53.254;6.460;2024-01-27T07:37:46;1.50;99.90
51637;DHT22;37713;53.254;6.460;2024-01-27T07:40:12;1.50;99.90
51637;DHT22;37713;53.254;6.460;2024-01-27T07:42:38;1.50;99.90
51637;DHT22;37713;53.254;6.460;2024-01-27T07:45:04;1.50;99.90
51637;DHT22;37713;53.254;6.460;2024-01-27T07:47:30;1.50;99.90
51637;DHT22;37713;53.254;6.460;2024-01-27T07:49:56;1.60;99.90
51637;DHT22;37713;53.254;6.460;2024-01-27T07:52:22;1.60;99.90
51637;DHT22;37713;53.254;6.460;2024-01-27T07:54:48;1.60;99.90
51637;DHT22;37713;53.254;6.460;2024-01-27T07:57:14;1.50;99.90
51637;DHT22;37713;53.254;6.460;2024-01-27T07:59:40;1.60;99.90
51637;DHT22;37713;53.254;6.460;2024-01-27T08:02:06;1.60;99.90
51637;DHT22;37713;53.254;6.460;2024-01-27T08:04:31;1.60;99.90
51637;DHT22;37713;53.254;6.460;2024-01-27T08:06:58;1.60;99.90
51637;DHT22;37713;53.254;6.460;2024-01-27T08:09:23;1.70;99.90
51637;DHT22;37713;53.254;6.460;2024-01-27T08:11:50;1.70;99.90
51637;DHT22;37713;53.254;6.460;2024-01-27T08:14:18;1.80;99.90
51637;DHT22;37713;53.254;6.460;2024-01-27T08:16:44;1.80;99.90
51637;DHT22;37713;53.254;6.460;2024-01-27T08:19:09;1.80;99.90
51637;DHT22;37713;53.254;6.460;2024-01-27T08:21:35;1.90;99.90
51637;DHT22;37713;53.254;6.460;2024-01-27T08:24:01;1.90;99.90
51637;DHT22;37713;53.254;6.460;2024-01-27T08:26:27;1.90;99.90
51637;DHT22;37713;53.254;6.460;2024-01-27T08:28:53;1.90;99.90
51637;DHT22;37713;53.254;6.460;2024-01-27T08:31:21;2.00;99.90
51637;DHT22;37713;53.254;6.460;2024-01-27T08:33:47;2.00;99.90
51637;DHT22;37713;53.254;6.460;2024-01-27T08:36:14;2.00;99.90
51637;DHT22;37713;53.254;6.460;2024-01-27T08:38:40;2.10;99.90
51637;DHT22;37713;53.254;6.460;2024-01-27T08:41:06;2.10;99.90
51637;DHT22;37713;53.254;6.460;2024-01-27T08:43:31;2.10;99.90
51637;DHT22;37713;53.254;6.460;2024-01-27T08:45:58;2.10;99.90
51637;DHT22;37713;53.254;6.460;2024-01-27T08:48:26;2.20;99.90
51637;DHT22;37713;53.254;6.460;2024-01-27T08:50:51;2.20;99.90
51637;DHT22;37713;53.254;6.460;2024-01-27T08:53:17;2.30;99.90
51637;DHT22;37713;53.254;6.460;2024-01-27T08:55:43;2.30;99.90
51637;DHT22;37713;53.254;6.460;2024-01-27T08:58:09;2.40;99.90
51637;DHT22;37713;53.254;6.460;2024-01-27T09:00:34;2.40;99.90
51637;DHT22;37713;53.254;6.460;2024-01-27T09:03:00;2.50;99.90
51637;DHT22;37713;53.254;6.460;2024-01-27T09:05:27;2.50;99.90
51637;DHT22;37713;53.254;6.460;2024-01-27T09:07:53;2.60;99.90
51637;DHT22;37713;53.254;6.460;2024-01-27T09:10:19;2.70;99.90
51637;DHT22;37713;53.254;6.460;2024-01-27T09:12:45;2.70;99.90
51637;DHT22;37713;53.254;6.460;2024-01-27T09:15:11;2.80;99.90
51637;DHT22;37713;53.254;6.460;2024-01-27T09:17:36;2.90;99.90
51637;DHT22;37713;53.254;6.460;2024-01-27T09:20:03;2.90;99.90
51637;DHT22;37713;53.254;6.460;2024-01-27T09:22:29;3.00;99.90
51637;DHT22;37713;53.254;6.460;2024-01-27T09:24:55;3.00;99.90
51637;DHT22;37713;53.254;6.460;2024-01-27T09:27:21;3.00;99.90
51637;DHT22;37713;53.254;6.460;2024-01-27T09:29:46;3.10;99.90
51637;DHT22;37713;53.254;6.460;2024-01-27T09:32:12;3.20;99.90
51637;DHT22;37713;53.254;6.460;2024-01-27T09:34:38;3.20;99.90
51637;DHT22;37713;53.254;6.460;2024-01-27T09:37:04;3.40;99.90
51637;DHT22;37713;53.254;6.460;2024-01-27T09:39:30;3.40;99.90
51637;DHT22;37713;53.254;6.460;2024-01-27T09:41:57;3.50;99.90
51637;DHT22;37713;53.254;6.460;2024-01-27T09:44:24;3.40;99.90
51637;DHT22;37713;53.254;6.460;2024-01-27T09:46:51;3.50;99.90
51637;DHT22;37713;53.254;6.460;2024-01-27T09:49:17;3.60;99.90
51637;DHT22;37713;53.254;6.460;2024-01-27T09:51:43;3.60;99.90
51637;DHT22;37713;53.254;6.460;2024-01-27T09:54:09;3.70;99.90
51637;DHT22;37713;53.254;6.460;2024-01-27T09:56:34;3.70;99.90
51637;DHT22;37713;53.254;6.460;2024-01-27T09:59:01;3.80;99.90
51637;DHT22;37713;53.254;6.460;2024-01-27T10:01:27;3.90;99.90
51637;DHT22;37713;53.254;6.460;2024-01-27T10:03:54;4.00;99.90
51637;DHT22;37713;53.254;6.460;2024-01-27T10:06:21;4.00;99.90
51637;DHT22;37713;53.254;6.460;2024-01-27T10:08:53;4.10;99.90
51637;DHT22;37713;53.254;6.460;2024-01-27T10:11:20;4.10;99.90
51637;DHT22;37713;53.254;6.460;2024-01-27T10:13:54;4.30;99.90
51637;DHT22;37713;53.254;6.460;2024-01-27T10:16:21;4.30;99.90
51637;DHT22;37713;53.254;6.460;2024-01-27T10:18:47;4.40;99.90
51637;DHT22;37713;53.254;6.460;2024-01-27T10:21:17;4.50;99.90
51637;DHT22;37713;53.254;6.460;2024-01-27T10:23:43;4.60;99.90
51637;DHT22;37713;53.254;6.460;2024-01-27T10:26:10;4.60;99.90
51637;DHT22;37713;53.254;6.460;2024-01-27T10:28:36;4.70;99.90
51637;DHT22;37713;53.254;6.460;2024-01-27T10:31:12;4.80;99.90
51637;DHT22;37713;53.254;6.460;2024-01-27T10:33:38;4.70;99.90
51637;DHT22;37713;53.254;6.460;2024-01-27T10:36:05;4.80;99.90
51637;DHT22;37713;53.254;6.460;2024-01-27T10:38:38;4.90;99.90
51637;DHT22;37713;53.254;6.460;2024-01-27T10:41:09;4.90;99.90
51637;DHT22;37713;53.254;6.460;2024-01-27T10:43:39;5.00;99.90
51637;DHT22;37713;53.254;6.460;2024-01-27T10:46:08;5.00;99.90
51637;DHT22;37713;53.254;6.460;2024-01-27T10:48:35;5.10;99.90
51637;DHT22;37713;53.254;6.460;2024-01-27T10:51:08;5.10;99.90
51637;DHT22;37713;53.254;6.460;2024-01-27T10:53:35;5.30;99.90
51637;DHT22;37713;53.254;6.460;2024-01-27T10:56:05;5.20;99.90
51637;DHT22;37713;53.254;6.460;2024-01-27T10:58:35;5.30;99.90
51637;DHT22;37713;53.254;6.460;2024-01-27T11:01:11;5.30;99.90
51637;DHT22;37713;53.254;6.460;2024-01-27T11:03:40;5.40;99.90
51637;DHT22;37713;53.254;6.460;2024-01-27T11:06:07;5.50;99.90
51637;DHT22;37713;53.254;6.460;2024-01-27T11:08:34;5.50;99.90
51637;DHT22;37713;53.254;6.460;2024-01-27T11:11:01;5.60;99.90
51637;DHT22;37713;53.254;6.460;2024-01-27T11:13:31;5.70;99.90
51637;DHT22;37713;53.254;6.460;2024-01-27T11:15:58;5.70;99.90
51637;DHT22;37713;53.254;6.460;2024-01-27T11:18:27;5.80;99.90
51637;DHT22;37713;53.254;6.460;2024-01-27T11:20:57;5.80;99.90
51637;DHT22;37713;53.254;6.460;2024-01-27T11:23:32;5.90;99.90
51637;DHT22;37713;53.254;6.460;2024-01-27T11:26:09;6.00;99.90
51637;DHT22;37713;53.254;6.460;2024-01-27T11:28:35;6.10;99.90
51637;DHT22;37713;53.254;6.460;2024-01-27T11:31:05;6.20;99.90
51637;DHT22;37713;53.254;6.460;2024-01-27T11:33:32;6.30;99.90
51637;DHT22;37713;53.254;6.460;2024-01-27T11:36:05;6.40;99.90
51637;DHT22;37713;53.254;6.460;2024-01-27T11:38:31;6.50;99.90
51637;DHT22;37713;53.254;6.460;2024-01-27T11:41:01;6.60;99.90
51637;DHT22;37713;53.254;6.460;2024-01-27T11:43:27;6.70;99.90
51637;DHT22;37713;53.254;6.460;2024-01-27T11:46:00;6.70;99.90
51637;DHT22;37713;53.254;6.460;2024-01-27T11:48:27;6.80;99.90
51637;DHT22;37713;53.254;6.460;2024-01-27T11:51:12;6.80;99.90
51637;DHT22;37713;53.254;6.460;2024-01-27T11:53:38;6.90;99.90
51637;DHT22;37713;53.254;6.460;2024-01-27T11:56:04;6.90;99.90
51637;DHT22;37713;53.254;6.460;2024-01-27T11:58:31;6.90;99.90
51637;DHT22;37713;53.254;6.460;2024-01-27T12:00:57;6.90;99.90
51637;DHT22;37713;53.254;6.460;2024-01-27T12:03:27;6.90;99.90
51637;DHT22;37713;53.254;6.460;2024-01-27T12:05:54;7.00;99.90
51637;DHT22;37713;53.254;6.460;2024-01-27T12:08:19;7.10;99.90
51637;DHT22;37713;53.254;6.460;2024-01-27T12:10:45;7.10;99.90
51637;DHT22;37713;53.254;6.460;2024-01-27T12:13:11;7.10;99.90
51637;DHT22;37713;53.254;6.460;2024-01-27T12:15:37;7.10;99.90
51637;DHT22;37713;53.254;6.460;2024-01-27T12:18:06;7.10;99.90
51637;DHT22;37713;53.254;6.460;2024-01-27T12:20:32;7.20;99.90
51637;DHT22;37713;53.254;6.460;2024-01-27T12:23:05;7.30;99.90
51637;DHT22;37713;53.254;6.460;2024-01-27T12:25:31;7.30;99.90
51637;DHT22;37713;53.254;6.460;2024-01-27T12:27:57;7.30;99.90
51637;DHT22;37713;53.254;6.460;2024-01-27T12:30:27;7.40;99.90
51637;DHT22;37713;53.254;6.460;2024-01-27T12:32:53;7.40;99.90
51637;DHT22;37713;53.254;6.460;2024-01-27T12:35:19;7.40;99.90
51637;DHT22;37713;53.254;6.460;2024-01-27T12:37:45;7.40;99.90
51637;DHT22;37713;53.254;6.460;2024-01-27T12:40:21;7.40;99.90
51637;DHT22;37713;53.254;6.460;2024-01-27T12:42:50;7.40;99.90
51637;DHT22;37713;53.254;6.460;2024-01-27T12:45:16;7.50;99.90
51637;DHT22;37713;53.254;6.460;2024-01-27T12:47:42;7.50;99.90
51637;DHT22;37713;53.254;6.460;2024-01-27T12:50:09;7.50;99.90
51637;DHT22;37713;53.254;6.460;2024-01-27T12:52:34;7.50;99.90
51637;DHT22;37713;53.254;6.460;2024-01-27T12:55:00;7.50;99.90
51637;DHT22;37713;53.254;6.460;2024-01-27T12:57:26;7.50;99.90
51637;DHT22;37713;53.254;6.460;2024-01-27T12:59:52;7.50;99.90
51637;DHT22;37713;53.254;6.460;2024-01-27T13:02:17;7.50;99.90
51637;DHT22;37713;53.254;6.460;2024-01-27T13:04:43;7.60;99.90
51637;DHT22;37713;53.254;6.460;2024-01-27T13:07:09;7.60;99.90
51637;DHT22;37713;53.254;6.460;2024-01-27T13:09:36;7.60;99.90
51637;DHT22;37713;53.254;6.460;2024-01-27T13:12:03;7.60;99.90
51637;DHT22;37713;53.254;6.460;2024-01-27T13:14:29;7.60;99.90
51637;DHT22;37713;53.254;6.460;2024-01-27T13:16:55;7.60;99.90
51637;DHT22;37713;53.254;6.460;2024-01-27T13:19:22;7.60;99.90
51637;DHT22;37713;53.254;6.460;2024-01-27T13:21:48;7.60;99.90
51637;DHT22;37713;53.254;6.460;2024-01-27T13:24:14;7.60;99.90
51637;DHT22;37713;53.254;6.460;2024-01-27T13:26:40;7.50;99.90
51637;DHT22;37713;53.254;6.460;2024-01-27T13:29:06;7.60;99.90
51637;DHT22;37713;53.254;6.460;2024-01-27T13:31:33;7.60;99.90
51637;DHT22;37713;53.254;6.460;2024-01-27T13:33:59;7.50;99.90
51637;DHT22;37713;53.254;6.460;2024-01-27T13:36:25;7.60;99.90
51637;DHT22;37713;53.254;6.460;2024-01-27T13:38:51;7.60;99.90
51637;DHT22;37713;53.254;6.460;2024-01-27T13:41:20;7.60;99.90
51637;DHT22;37713;53.254;6.460;2024-01-27T13:43:46;7.70;99.90
51637;DHT22;37713;53.254;6.460;2024-01-27T13:46:12;7.70;99.90
51637;DHT22;37713;53.254;6.460;2024-01-27T13:48:38;7.70;99.90
51637;DHT22;37713;53.254;6.460;2024-01-27T13:51:04;7.70;99.90
51637;DHT22;37713;53.254;6.460;2024-01-27T13:53:29;7.70;99.90
51637;DHT22;37713;53.254;6.460;2024-01-27T13:55:55;7.70;99.90
51637;DHT22;37713;53.254;6.460;2024-01-27T13:58:21;7.70;99.90
51637;DHT22;37713;53.254;6.460;2024-01-27T14:00:47;7.70;99.90
51637;DHT22;37713;53.254;6.460;2024-01-27T14:03:13;7.60;99.90
51637;DHT22;37713;53.254;6.460;2024-01-27T14:05:39;7.60;99.90
51637;DHT22;37713;53.254;6.460;2024-01-27T14:08:07;7.60;99.90
51637;DHT22;37713;53.254;6.460;2024-01-27T14:10:34;7.50;99.90
51637;DHT22;37713;53.254;6.460;2024-01-27T14:13:01;7.50;99.90
51637;DHT22;37713;53.254;6.460;2024-01-27T14:15:30;7.50;99.90
51637;DHT22;37713;53.254;6.460;2024-01-27T14:17:56;7.40;99.90
51637;DHT22;37713;53.254;6.460;2024-01-27T14:20:22;7.40;99.90
51637;DHT22;37713;53.254;6.460;2024-01-27T14:22:48;7.30;99.90
51637;DHT22;37713;53.254;6.460;2024-01-27T14:25:13;7.30;99.90
51637;DHT22;37713;53.254;6.460;2024-01-27T14:27:39;7.20;99.90
51637;DHT22;37713;53.254;6.460;2024-01-27T14:30:06;7.20;99.90
51637;DHT22;37713;53.254;6.460;2024-01-27T14:32:32;7.10;99.90
51637;DHT22;37713;53.254;6.460;2024-01-27T14:34:58;7.10;99.90
51637;DHT22;37713;53.254;6.460;2024-01-27T14:37:42;7.10;99.90
51637;DHT22;37713;53.254;6.460;2024-01-27T14:40:08;7.00;99.90
51637;DHT22;37713;53.254;6.460;2024-01-27T14:42:35;7.00;99.90
51637;DHT22;37713;53.254;6.460;2024-01-27T14:45:02;7.00;99.90
51637;DHT22;37713;53.254;6.460;2024-01-27T14:47:28;7.00;99.90
51637;DHT22;37713;53.254;6.460;2024-01-27T14:49:54;7.00;99.90
51637;DHT22;37713;53.254;6.460;2024-01-27T14:52:19;7.00;99.90
51637;DHT22;37713;53.254;6.460;2024-01-27T14:54:47;7.00;99.90
51637;DHT22;37713;53.254;6.460;2024-01-27T14:57:14;6.90;99.90
51637;DHT22;37713;53.254;6.460;2024-01-27T14:59:39;6.90;99.90
51637;DHT22;37713;53.254;6.460;2024-01-27T15:02:05;6.90;99.90
51637;DHT22;37713;53.254;6.460;2024-01-27T15:04:33;6.90;99.90
51637;DHT22;37713;53.254;6.460;2024-01-27T15:06:59;6.80;99.90
51637;DHT22;37713;53.254;6.460;2024-01-27T15:09:25;6.80;99.90
51637;DHT22;37713;53.254;6.460;2024-01-27T15:11:51;6.70;99.90
51637;DHT22;37713;53.254;6.460;2024-01-27T15:14:18;6.70;99.90
51637;DHT22;37713;53.254;6.460;2024-01-27T15:16:47;6.60;99.90
51637;DHT22;37713;53.254;6.460;2024-01-27T15:19:13;6.60;99.90
51637;DHT22;37713;53.254;6.460;2024-01-27T15:21:39;6.50;99.90
51637;DHT22;37713;53.254;6.460;2024-01-27T15:24:05;6.50;99.90
51637;DHT22;37713;53.254;6.460;2024-01-27T15:26:31;6.40;99.90
51637;DHT22;37713;53.254;6.460;2024-01-27T15:28:57;6.40;99.90
51637;DHT22;37713;53.254;6.460;2024-01-27T15:31:23;6.30;99.90
51637;DHT22;37713;53.254;6.460;2024-01-27T15:33:50;6.30;99.90
51637;DHT22;37713;53.254;6.460;2024-01-27T15:36:16;6.20;99.90
51637;DHT22;37713;53.254;6.460;2024-01-27T15:38:42;6.10;99.90
51637;DHT22;37713;53.254;6.460;2024-01-27T15:41:08;6.10;99.90
51637;DHT22;37713;53.254;6.460;2024-01-27T15:43:34;6.10;99.90